createdAt,value
2017-02-02T00:00:15.461Z,19.92
2017-02-02T00:01:26.582Z,20.02
2017-02-02T00:01:54.801Z,19.93
2017-02-02T00:02:23.159Z,19.9
2017-02-02T00:02:51.309Z,19.97
2017-02-02T00:03:19.572Z,19.94
2017-02-02T00:03:47.729Z,19.92
2017-02-02T00:04:16.021Z,19.9
2017-02-02T00:04:44.420Z,19.94
2017-02-02T00:05:12.669Z,19.97
2017-02-02T00:05:40.873Z,19.97
2017-02-02T00:06:09.055Z,19.96
2017-02-02T00:07:20.476Z,19.99
2017-02-02T00:07:48.662Z,20.02
2017-02-02T00:08:16.930Z,20.07
2017-02-02T00:08:45.167Z,19.97
2017-02-02T00:09:13.431Z,19.94
2017-02-02T00:09:41.676Z,19.89
2017-02-02T00:10:09.964Z,19.94
2017-02-02T00:10:38.350Z,19.93
2017-02-02T00:11:06.526Z,19.92
2017-02-02T00:11:34.827Z,19.84
2017-02-02T00:12:03.107Z,19.94
2017-02-02T00:13:14.512Z,19.9
2017-02-02T00:13:42.744Z,19.86
2017-02-02T00:14:10.916Z,19.94
2017-02-02T00:14:39.248Z,19.92
2017-02-02T00:15:07.542Z,19.89
2017-02-02T00:15:35.782Z,19.86
2017-02-02T00:16:04.163Z,19.84
2017-02-02T00:16:32.475Z,19.81
2017-02-02T00:17:00.733Z,19.89
2017-02-02T00:17:29.127Z,19.89
2017-02-02T00:17:57.418Z,19.86
2017-02-02T00:19:08.640Z,19.87
2017-02-02T00:19:36.975Z,19.79
2017-02-02T00:20:05.238Z,19.82
2017-02-02T00:20:33.559Z,19.77
2017-02-02T00:21:01.931Z,19.78
2017-02-02T00:21:30.280Z,19.75
2017-02-02T00:21:58.670Z,19.7
2017-02-02T00:22:26.883Z,19.75
2017-02-02T00:22:55.040Z,19.77
2017-02-02T00:23:23.329Z,19.79
2017-02-02T00:23:51.419Z,19.79
2017-02-02T00:25:02.829Z,19.74
2017-02-02T00:25:31.080Z,19.72
2017-02-02T00:25:59.269Z,19.72
2017-02-02T00:26:27.589Z,19.7
2017-02-02T00:26:55.779Z,19.7
2017-02-02T00:27:24.025Z,19.63
2017-02-02T00:27:52.411Z,19.67
2017-02-02T00:28:20.612Z,19.57
2017-02-02T00:28:48.806Z,19.62
2017-02-02T00:29:17.133Z,19.62
2017-02-02T00:29:45.406Z,19.64
2017-02-02T00:30:56.745Z,19.59
2017-02-02T00:31:25.083Z,19.71
2017-02-02T00:31:53.443Z,19.67
2017-02-02T00:32:21.770Z,19.72
2017-02-02T00:32:49.947Z,19.67
2017-02-02T00:33:18.197Z,19.6
2017-02-02T00:33:46.482Z,19.59
2017-02-02T00:34:14.671Z,19.7
2017-02-02T00:34:42.927Z,19.68
2017-02-02T00:35:11.227Z,19.62
2017-02-02T00:35:39.510Z,19.62
2017-02-02T00:36:50.928Z,19.64
2017-02-02T00:37:19.290Z,19.64
2017-02-02T00:37:47.394Z,19.6
2017-02-02T00:38:15.537Z,19.62
2017-02-02T00:38:43.824Z,19.62
2017-02-02T00:39:11.878Z,19.63
2017-02-02T00:39:40.261Z,19.57
2017-02-02T00:40:08.589Z,19.62
2017-02-02T00:40:36.863Z,19.6
2017-02-02T00:41:05.258Z,19.63
2017-02-02T00:41:33.549Z,19.59
2017-02-02T00:42:44.883Z,19.64
2017-02-02T00:43:13.143Z,19.63
2017-02-02T00:43:41.408Z,19.52
2017-02-02T00:44:09.636Z,19.63
2017-02-02T00:44:37.902Z,19.68
2017-02-02T00:45:06.233Z,19.62
2017-02-02T00:45:34.608Z,19.64
2017-02-02T00:46:02.983Z,19.57
2017-02-02T00:46:31.166Z,19.6
2017-02-02T00:46:59.463Z,19.6
2017-02-02T00:47:27.557Z,19.67
2017-02-02T00:48:38.896Z,19.62
2017-02-02T00:49:07.377Z,19.62
2017-02-02T00:49:35.669Z,19.59
2017-02-02T00:50:03.825Z,19.62
2017-02-02T00:50:32.106Z,19.63
2017-02-02T00:51:00.163Z,19.62
2017-02-02T00:51:28.568Z,19.67
2017-02-02T00:51:56.917Z,19.6
2017-02-02T00:52:25.313Z,19.59
2017-02-02T00:52:53.642Z,19.67
2017-02-02T00:53:21.959Z,19.64
2017-02-02T00:54:33.299Z,19.74
2017-02-02T00:55:01.673Z,19.71
2017-02-02T00:55:30.045Z,19.75
2017-02-02T00:55:58.185Z,19.74
2017-02-02T00:56:26.454Z,19.7
2017-02-02T00:56:54.611Z,19.68
2017-02-02T00:57:22.903Z,19.7
2017-02-02T00:57:51.197Z,19.74
2017-02-02T00:58:19.560Z,19.7
2017-02-02T00:58:47.938Z,19.75
2017-02-02T00:59:16.224Z,19.74
2017-02-02T01:00:27.662Z,19.72
2017-02-02T01:00:56.161Z,19.72
2017-02-02T01:01:24.342Z,19.77
2017-02-02T01:01:52.576Z,19.68
2017-02-02T01:02:20.840Z,19.7
2017-02-02T01:02:48.901Z,19.79
2017-02-02T01:03:17.129Z,19.72
2017-02-02T01:03:45.367Z,19.75
2017-02-02T01:04:13.657Z,19.74
2017-02-02T01:04:41.778Z,19.87
2017-02-02T01:05:09.964Z,19.86
2017-02-02T01:06:21.378Z,19.81
2017-02-02T01:06:49.721Z,19.81
2017-02-02T01:07:17.998Z,19.92
2017-02-02T01:07:46.227Z,19.9
2017-02-02T01:08:14.587Z,19.92
2017-02-02T01:08:42.824Z,19.86
2017-02-02T01:09:11.244Z,19.81
2017-02-02T01:09:39.638Z,19.79
2017-02-02T01:10:08.011Z,19.84
2017-02-02T01:10:36.310Z,19.79
2017-02-02T01:11:04.605Z,19.81
2017-02-02T01:12:15.935Z,19.82
2017-02-02T01:12:44.324Z,19.86
2017-02-02T01:13:12.629Z,19.78
2017-02-02T01:13:40.969Z,19.81
2017-02-02T01:14:09.358Z,19.86
2017-02-02T01:14:37.614Z,19.82
2017-02-02T01:15:06.044Z,19.92
2017-02-02T01:15:34.394Z,19.92
2017-02-02T01:16:02.837Z,19.82
2017-02-02T01:16:31.205Z,20
2017-02-02T01:16:59.485Z,19.94
2017-02-02T01:18:10.987Z,19.96
2017-02-02T01:18:39.505Z,19.96
2017-02-02T01:19:07.911Z,19.96
2017-02-02T01:19:36.157Z,19.9
2017-02-02T01:20:04.386Z,19.94
2017-02-02T01:20:33.491Z,19.92
2017-02-02T01:21:01.865Z,19.99
2017-02-02T01:21:30.249Z,19.96
2017-02-02T01:21:58.517Z,19.96
2017-02-02T01:22:26.812Z,19.93
2017-02-02T01:22:55.061Z,19.94
2017-02-02T01:24:06.438Z,19.97
2017-02-02T01:24:34.895Z,19.92
2017-02-02T01:25:03.315Z,19.9
2017-02-02T01:25:31.575Z,19.94
2017-02-02T01:25:59.891Z,19.89
2017-02-02T01:26:28.211Z,19.9
2017-02-02T01:26:56.613Z,19.97
2017-02-02T01:27:24.832Z,19.99
2017-02-02T01:27:53.119Z,19.97
2017-02-02T01:28:21.281Z,19.94
2017-02-02T01:28:49.635Z,19.93
2017-02-02T01:30:01.088Z,19.97
2017-02-02T01:30:29.592Z,19.97
2017-02-02T01:30:57.914Z,19.92
2017-02-02T01:31:26.186Z,19.94
2017-02-02T01:31:54.471Z,19.97
2017-02-02T01:32:22.720Z,19.94
2017-02-02T01:32:51.179Z,19.93
2017-02-02T01:33:19.535Z,19.96
2017-02-02T01:33:47.887Z,19.93
2017-02-02T01:34:16.245Z,19.94
2017-02-02T01:34:44.388Z,19.94
2017-02-02T01:35:55.668Z,20
2017-02-02T01:36:24.116Z,19.94
2017-02-02T01:36:52.497Z,19.97
2017-02-02T01:37:20.844Z,19.97
2017-02-02T01:37:49.053Z,19.89
2017-02-02T01:38:17.468Z,19.86
2017-02-02T01:38:45.882Z,19.9
2017-02-02T01:39:14.166Z,19.84
2017-02-02T01:39:42.487Z,19.9
2017-02-02T01:40:10.951Z,19.96
2017-02-02T01:40:39.204Z,19.86
2017-02-02T01:41:50.398Z,19.93
2017-02-02T01:42:18.513Z,19.93
2017-02-02T01:42:47.660Z,19.9
2017-02-02T01:43:15.826Z,19.94
2017-02-02T01:43:44.093Z,19.82
2017-02-02T01:44:12.156Z,19.87
2017-02-02T01:44:40.485Z,19.89
2017-02-02T01:45:08.910Z,19.93
2017-02-02T01:45:37.123Z,19.94
2017-02-02T01:46:05.566Z,19.96
2017-02-02T01:46:33.955Z,19.89
2017-02-02T01:47:45.303Z,19.86
2017-02-02T01:48:13.777Z,19.93
2017-02-02T01:48:41.949Z,19.86
2017-02-02T01:49:10.282Z,19.89
2017-02-02T01:49:38.537Z,19.87
2017-02-02T01:50:06.943Z,19.9
2017-02-02T01:50:35.376Z,19.93
2017-02-02T01:51:03.734Z,19.92
2017-02-02T01:51:32.123Z,19.89
2017-02-02T01:52:00.543Z,19.89
2017-02-02T01:52:28.883Z,19.9
2017-02-02T01:53:40.432Z,19.92
2017-02-02T01:54:08.847Z,19.86
2017-02-02T01:54:37.074Z,19.89
2017-02-02T01:55:05.311Z,19.79
2017-02-02T01:55:33.660Z,19.92
2017-02-02T01:56:01.988Z,19.93
2017-02-02T01:56:30.564Z,19.86
2017-02-02T01:56:59.013Z,19.82
2017-02-02T01:57:27.296Z,19.9
2017-02-02T01:57:55.615Z,19.93
2017-02-02T01:58:23.907Z,19.87
2017-02-02T01:59:35.387Z,19.87
2017-02-02T02:00:03.839Z,19.87
2017-02-02T02:00:32.021Z,19.89
2017-02-02T02:01:00.346Z,19.94
2017-02-02T02:01:29.357Z,19.93
2017-02-02T02:01:57.610Z,19.99
2017-02-02T02:02:25.907Z,19.94
2017-02-02T02:02:54.320Z,19.93
2017-02-02T02:03:22.411Z,19.93
2017-02-02T02:03:51.290Z,20.02
2017-02-02T02:04:19.587Z,19.94
2017-02-02T02:05:30.908Z,20.04
2017-02-02T02:05:59.318Z,20.04
2017-02-02T02:06:27.490Z,20.07
2017-02-02T02:06:55.815Z,20.07
2017-02-02T02:07:24.094Z,20.02
2017-02-02T02:07:52.319Z,20
2017-02-02T02:08:20.772Z,20
2017-02-02T02:08:49.003Z,19.94
2017-02-02T02:09:17.245Z,19.94
2017-02-02T02:09:45.546Z,20.02
2017-02-02T02:10:13.800Z,20.05
2017-02-02T02:11:24.997Z,20.04
2017-02-02T02:11:53.600Z,20.04
2017-02-02T02:12:21.878Z,20
2017-02-02T02:12:50.111Z,20
2017-02-02T02:13:18.411Z,20
2017-02-02T02:13:46.640Z,20.04
2017-02-02T02:14:15.048Z,20.02
2017-02-02T02:14:43.291Z,20.04
2017-02-02T02:15:11.611Z,19.99
2017-02-02T02:15:39.912Z,19.96
2017-02-02T02:16:08.257Z,19.96
2017-02-02T02:17:19.645Z,20.04
2017-02-02T02:17:47.915Z,20.02
2017-02-02T02:18:16.100Z,20
2017-02-02T02:18:44.328Z,20.07
2017-02-02T02:19:12.631Z,19.92
2017-02-02T02:19:41.705Z,19.94
2017-02-02T02:20:10.206Z,19.94
2017-02-02T02:20:38.247Z,19.92
2017-02-02T02:21:06.579Z,20
2017-02-02T02:21:34.789Z,20
2017-02-02T02:22:03.047Z,19.93
2017-02-02T02:23:14.324Z,19.94
2017-02-02T02:23:42.593Z,19.94
2017-02-02T02:24:10.868Z,19.99
2017-02-02T02:24:39.099Z,20.02
2017-02-02T02:25:07.308Z,19.96
2017-02-02T02:25:35.627Z,19.96
2017-02-02T02:26:04.046Z,19.92
2017-02-02T02:26:32.182Z,19.97
2017-02-02T02:27:00.422Z,19.93
2017-02-02T02:27:28.537Z,20
2017-02-02T02:27:56.794Z,19.94
2017-02-02T02:29:07.993Z,20.04
2017-02-02T02:29:36.341Z,19.93
2017-02-02T02:30:05.374Z,19.99
2017-02-02T02:30:33.687Z,20.02
2017-02-02T02:31:01.985Z,20.02
2017-02-02T02:31:30.213Z,20.04
2017-02-02T02:31:58.681Z,20.07
2017-02-02T02:32:26.995Z,20.09
2017-02-02T02:32:55.330Z,20.02
2017-02-02T02:33:23.541Z,20.04
2017-02-02T02:33:51.889Z,20.05
2017-02-02T02:35:03.276Z,20.02
2017-02-02T02:35:31.357Z,20.02
2017-02-02T02:35:59.732Z,20.02
2017-02-02T02:36:27.958Z,20.05
2017-02-02T02:36:56.353Z,20.11
2017-02-02T02:37:24.588Z,20.07
2017-02-02T02:37:53.137Z,20.04
2017-02-02T02:38:21.181Z,20.04
2017-02-02T02:38:49.422Z,20.05
2017-02-02T02:39:17.721Z,19.97
2017-02-02T02:39:45.981Z,19.97
2017-02-02T02:40:57.189Z,19.99
2017-02-02T02:41:25.364Z,19.96
2017-02-02T02:41:53.643Z,19.97
2017-02-02T02:42:21.688Z,19.97
2017-02-02T02:42:50.079Z,20
2017-02-02T02:43:18.213Z,19.94
2017-02-02T02:43:46.642Z,19.94
2017-02-02T02:44:14.863Z,19.94
2017-02-02T02:44:43.110Z,19.94
2017-02-02T02:45:11.500Z,20
2017-02-02T02:45:39.755Z,19.96
2017-02-02T02:46:51.114Z,19.97
2017-02-02T02:47:19.476Z,19.94
2017-02-02T02:47:47.839Z,19.92
2017-02-02T02:48:16.063Z,19.94
2017-02-02T02:48:44.084Z,19.92
2017-02-02T02:49:12.127Z,19.86
2017-02-02T02:49:40.619Z,19.86
2017-02-02T02:50:08.939Z,19.84
2017-02-02T02:50:37.090Z,19.89
2017-02-02T02:51:05.298Z,19.79
2017-02-02T02:51:33.461Z,19.82
2017-02-02T02:52:44.831Z,19.78
2017-02-02T02:53:13.013Z,19.77
2017-02-02T02:53:41.377Z,19.79
2017-02-02T02:54:09.419Z,19.81
2017-02-02T02:54:37.717Z,19.79
2017-02-02T02:55:05.942Z,19.75
2017-02-02T02:55:34.354Z,19.77
2017-02-02T02:56:02.583Z,19.77
2017-02-02T02:56:30.828Z,19.72
2017-02-02T02:56:59.124Z,19.81
2017-02-02T02:57:27.290Z,19.78
2017-02-02T02:58:38.665Z,19.79
2017-02-02T02:59:06.937Z,19.77
2017-02-02T02:59:35.205Z,19.81
2017-02-02T03:00:03.529Z,19.81
2017-02-02T03:00:31.913Z,19.75
2017-02-02T03:01:00.235Z,19.79
2017-02-02T03:01:28.558Z,19.77
2017-02-02T03:01:56.785Z,19.72
2017-02-02T03:02:25.022Z,19.77
2017-02-02T03:02:53.318Z,19.74
2017-02-02T03:03:21.581Z,19.77
2017-02-02T03:04:32.880Z,19.74
2017-02-02T03:05:01.146Z,19.75
2017-02-02T03:05:29.507Z,19.7
2017-02-02T03:05:57.831Z,19.77
2017-02-02T03:06:26.215Z,19.71
2017-02-02T03:06:54.341Z,19.77
2017-02-02T03:07:22.650Z,19.72
2017-02-02T03:07:50.973Z,19.77
2017-02-02T03:08:19.210Z,19.72
2017-02-02T03:08:47.321Z,19.75
2017-02-02T03:09:15.571Z,19.71
2017-02-02T03:10:27.030Z,19.74
2017-02-02T03:10:55.300Z,19.74
2017-02-02T03:11:23.581Z,19.71
2017-02-02T03:11:51.895Z,19.7
2017-02-02T03:12:20.287Z,19.71
2017-02-02T03:12:48.609Z,19.68
2017-02-02T03:13:16.940Z,19.72
2017-02-02T03:13:45.263Z,19.75
2017-02-02T03:14:13.592Z,19.67
2017-02-02T03:14:41.894Z,19.75
2017-02-02T03:15:10.242Z,19.74
2017-02-02T03:16:21.707Z,19.7
2017-02-02T03:16:49.978Z,19.68
2017-02-02T03:17:18.343Z,19.72
2017-02-02T03:17:46.574Z,19.75
2017-02-02T03:18:14.777Z,19.7
2017-02-02T03:18:43.099Z,19.64
2017-02-02T03:19:11.278Z,19.71
2017-02-02T03:19:39.483Z,19.79
2017-02-02T03:20:07.623Z,19.62
2017-02-02T03:20:35.935Z,19.75
2017-02-02T03:21:04.289Z,19.78
2017-02-02T03:22:15.587Z,19.79
2017-02-02T03:22:43.842Z,19.74
2017-02-02T03:23:12.007Z,19.75
2017-02-02T03:23:40.149Z,19.81
2017-02-02T03:24:08.553Z,19.86
2017-02-02T03:24:36.592Z,19.92
2017-02-02T03:25:04.863Z,19.82
2017-02-02T03:25:32.976Z,19.87
2017-02-02T03:26:01.327Z,19.81
2017-02-02T03:26:29.612Z,19.81
2017-02-02T03:26:57.878Z,19.82
2017-02-02T03:28:09.267Z,19.84
2017-02-02T03:28:37.525Z,19.82
2017-02-02T03:29:05.869Z,19.84
2017-02-02T03:29:34.105Z,19.84
2017-02-02T03:30:02.508Z,19.84
2017-02-02T03:30:30.740Z,19.87
2017-02-02T03:30:59.011Z,19.92
2017-02-02T03:31:27.318Z,19.86
2017-02-02T03:31:55.553Z,19.82
2017-02-02T03:32:23.957Z,19.9
2017-02-02T03:32:52.127Z,19.86
2017-02-02T03:34:03.331Z,19.9
2017-02-02T03:34:31.575Z,19.87
2017-02-02T03:34:59.858Z,19.89
2017-02-02T03:35:28.000Z,19.87
2017-02-02T03:35:56.312Z,19.89
2017-02-02T03:36:24.539Z,19.93
2017-02-02T03:36:52.717Z,19.9
2017-02-02T03:37:20.832Z,19.97
2017-02-02T03:37:49.157Z,19.9
2017-02-02T03:38:17.558Z,19.97
2017-02-02T03:38:45.913Z,19.93
2017-02-02T03:39:57.038Z,19.97
2017-02-02T03:40:25.209Z,19.9
2017-02-02T03:40:53.477Z,19.94
2017-02-02T03:41:21.617Z,19.92
2017-02-02T03:41:49.838Z,19.87
2017-02-02T03:42:17.943Z,19.9
2017-02-02T03:42:46.023Z,19.87
2017-02-02T03:43:14.158Z,19.84
2017-02-02T03:43:42.386Z,19.89
2017-02-02T03:44:10.694Z,19.84
2017-02-02T03:44:38.862Z,19.87
2017-02-02T03:45:50.082Z,19.79
2017-02-02T03:46:18.155Z,19.79
2017-02-02T03:46:46.515Z,19.81
2017-02-02T03:47:14.662Z,19.82
2017-02-02T03:47:43.072Z,19.82
2017-02-02T03:48:11.356Z,19.81
2017-02-02T03:48:39.443Z,19.79
2017-02-02T03:49:07.747Z,19.81
2017-02-02T03:49:35.981Z,19.81
2017-02-02T03:50:04.288Z,19.82
2017-02-02T03:50:32.561Z,19.86
2017-02-02T03:51:43.853Z,19.82
2017-02-02T03:52:12.201Z,19.81
2017-02-02T03:52:40.367Z,19.84
2017-02-02T03:53:08.693Z,19.82
2017-02-02T03:53:37.007Z,19.86
2017-02-02T03:54:05.044Z,19.89
2017-02-02T03:54:33.312Z,19.81
2017-02-02T03:55:01.516Z,19.75
2017-02-02T03:55:29.745Z,19.77
2017-02-02T03:55:58.148Z,19.72
2017-02-02T03:56:26.414Z,19.81
2017-02-02T03:57:37.807Z,19.71
2017-02-02T03:58:06.153Z,19.7
2017-02-02T03:58:34.414Z,19.71
2017-02-02T03:59:02.555Z,19.71
2017-02-02T03:59:30.859Z,19.64
2017-02-02T03:59:59.088Z,19.75
2017-02-02T04:00:27.449Z,19.75
2017-02-02T04:00:55.663Z,19.78
2017-02-02T04:01:23.987Z,19.79
2017-02-02T04:01:52.391Z,19.72
2017-02-02T04:02:20.691Z,19.71
2017-02-02T04:03:31.986Z,19.74
2017-02-02T04:04:00.242Z,19.79
2017-02-02T04:04:28.506Z,19.79
2017-02-02T04:04:56.735Z,19.78
2017-02-02T04:05:24.949Z,19.84
2017-02-02T04:05:53.086Z,19.75
2017-02-02T04:06:21.350Z,19.82
2017-02-02T04:06:49.473Z,19.78
2017-02-02T04:07:17.643Z,19.84
2017-02-02T04:07:45.958Z,19.82
2017-02-02T04:08:14.312Z,19.84
2017-02-02T04:09:25.702Z,19.89
2017-02-02T04:09:53.860Z,19.72
2017-02-02T04:10:22.119Z,19.75
2017-02-02T04:10:50.360Z,19.81
2017-02-02T04:11:18.666Z,19.82
2017-02-02T04:11:46.798Z,19.75
2017-02-02T04:12:15.068Z,19.78
2017-02-02T04:12:43.189Z,19.77
2017-02-02T04:13:11.419Z,19.74
2017-02-02T04:13:39.448Z,19.78
2017-02-02T04:14:07.532Z,19.75
2017-02-02T04:15:18.919Z,19.78
2017-02-02T04:15:47.180Z,19.78
2017-02-02T04:16:15.332Z,19.87
2017-02-02T04:16:43.472Z,19.82
2017-02-02T04:17:11.780Z,19.87
2017-02-02T04:17:39.825Z,19.87
2017-02-02T04:18:08.091Z,19.84
2017-02-02T04:18:36.301Z,19.86
2017-02-02T04:19:04.629Z,19.82
2017-02-02T04:19:32.845Z,19.81
2017-02-02T04:20:01.016Z,19.86
2017-02-02T04:21:12.408Z,19.87
2017-02-02T04:21:40.758Z,19.79
2017-02-02T04:22:08.922Z,19.82
2017-02-02T04:22:37.156Z,19.82
2017-02-02T04:23:05.280Z,19.87
2017-02-02T04:23:33.510Z,19.74
2017-02-02T04:24:01.872Z,19.86
2017-02-02T04:24:30.172Z,19.75
2017-02-02T04:24:58.407Z,19.78
2017-02-02T04:25:26.809Z,19.77
2017-02-02T04:25:54.980Z,19.81
2017-02-02T04:27:06.280Z,19.78
2017-02-02T04:27:34.525Z,19.78
2017-02-02T04:28:02.879Z,19.79
2017-02-02T04:28:31.115Z,19.75
2017-02-02T04:28:59.430Z,19.64
2017-02-02T04:29:27.472Z,19.67
2017-02-02T04:29:55.738Z,19.67
2017-02-02T04:30:23.853Z,19.72
2017-02-02T04:30:52.177Z,19.74
2017-02-02T04:31:20.580Z,19.74
2017-02-02T04:31:48.663Z,19.74
2017-02-02T04:32:59.785Z,19.74
2017-02-02T04:33:27.943Z,19.68
2017-02-02T04:33:56.104Z,19.63
2017-02-02T04:34:24.243Z,19.7
2017-02-02T04:34:52.371Z,19.78
2017-02-02T04:35:20.598Z,19.75
2017-02-02T04:35:48.869Z,19.82
2017-02-02T04:36:17.075Z,19.77
2017-02-02T04:36:45.401Z,19.75
2017-02-02T04:37:13.711Z,19.78
2017-02-02T04:37:41.977Z,19.79
2017-02-02T04:38:53.370Z,19.71
2017-02-02T04:39:21.527Z,19.72
2017-02-02T04:39:49.877Z,19.6
2017-02-02T04:40:17.927Z,19.75
2017-02-02T04:40:46.235Z,19.72
2017-02-02T04:41:14.464Z,19.72
2017-02-02T04:41:42.735Z,19.64
2017-02-02T04:42:10.848Z,19.71
2017-02-02T04:42:38.989Z,19.6
2017-02-02T04:43:07.206Z,19.62
2017-02-02T04:43:35.471Z,19.6
2017-02-02T04:44:46.674Z,19.64
2017-02-02T04:45:15.020Z,19.63
2017-02-02T04:45:43.274Z,19.62
2017-02-02T04:46:11.509Z,19.62
2017-02-02T04:46:39.726Z,19.62
2017-02-02T04:47:07.858Z,19.62
2017-02-02T04:47:36.126Z,19.57
2017-02-02T04:48:04.236Z,19.64
2017-02-02T04:48:32.470Z,19.57
2017-02-02T04:49:00.781Z,19.57
2017-02-02T04:49:28.957Z,19.62
2017-02-02T04:50:40.257Z,19.62
2017-02-02T04:51:08.325Z,19.63
2017-02-02T04:51:36.575Z,19.63
2017-02-02T04:52:04.904Z,19.57
2017-02-02T04:52:33.026Z,19.72
2017-02-02T04:53:01.346Z,19.7
2017-02-02T04:53:29.619Z,19.71
2017-02-02T04:53:57.832Z,19.7
2017-02-02T04:54:25.967Z,19.71
2017-02-02T04:54:54.369Z,19.71
2017-02-02T04:55:22.631Z,19.72
2017-02-02T04:56:34.020Z,19.74
2017-02-02T04:57:02.268Z,19.77
2017-02-02T04:57:30.433Z,19.68
2017-02-02T04:57:58.764Z,19.67
2017-02-02T04:58:26.990Z,19.6
2017-02-02T04:58:55.312Z,19.81
2017-02-02T04:59:23.577Z,19.74
2017-02-02T04:59:51.787Z,19.74
2017-02-02T05:00:19.929Z,19.72
2017-02-02T05:00:48.149Z,19.7
2017-02-02T05:01:16.511Z,19.71
2017-02-02T05:02:27.902Z,19.78
2017-02-02T05:02:55.969Z,19.67
2017-02-02T05:03:24.223Z,19.75
2017-02-02T05:03:52.556Z,19.67
2017-02-02T05:04:20.865Z,19.75
2017-02-02T05:04:48.997Z,19.78
2017-02-02T05:05:17.172Z,19.75
2017-02-02T05:05:45.383Z,19.77
2017-02-02T05:06:13.432Z,19.72
2017-02-02T05:06:41.755Z,19.75
2017-02-02T05:07:10.020Z,19.68
2017-02-02T05:08:21.410Z,19.78
2017-02-02T05:08:49.663Z,19.71
2017-02-02T05:09:17.734Z,19.72
2017-02-02T05:09:46.063Z,19.75
2017-02-02T05:10:14.464Z,19.7
2017-02-02T05:10:42.594Z,19.75
2017-02-02T05:11:10.864Z,19.71
2017-02-02T05:11:39.073Z,19.68
2017-02-02T05:12:07.215Z,19.78
2017-02-02T05:12:35.526Z,19.82
2017-02-02T05:13:03.731Z,19.78
2017-02-02T05:14:14.934Z,19.79
2017-02-02T05:14:43.187Z,19.77
2017-02-02T05:15:11.352Z,19.75
2017-02-02T05:15:39.681Z,19.79
2017-02-02T05:16:08.089Z,19.78
2017-02-02T05:16:36.227Z,19.87
2017-02-02T05:17:04.585Z,19.86
2017-02-02T05:17:32.700Z,19.81
2017-02-02T05:18:01.028Z,19.75
2017-02-02T05:18:29.241Z,19.86
2017-02-02T05:18:57.509Z,19.79
2017-02-02T05:20:08.811Z,19.79
2017-02-02T05:20:37.062Z,19.86
2017-02-02T05:21:05.156Z,19.81
2017-02-02T05:21:33.403Z,19.9
2017-02-02T05:22:01.621Z,19.79
2017-02-02T05:22:29.853Z,19.77
2017-02-02T05:22:58.121Z,19.84
2017-02-02T05:23:26.421Z,19.78
2017-02-02T05:23:54.654Z,19.79
2017-02-02T05:24:23.054Z,19.77
2017-02-02T05:24:51.415Z,19.82
2017-02-02T05:26:03.073Z,19.79
2017-02-02T05:26:31.234Z,19.84
2017-02-02T05:26:59.488Z,19.82
2017-02-02T05:27:27.722Z,19.79
2017-02-02T05:27:55.849Z,19.87
2017-02-02T05:28:23.892Z,19.82
2017-02-02T05:28:52.161Z,19.9
2017-02-02T05:29:20.278Z,19.81
2017-02-02T05:29:48.420Z,19.79
2017-02-02T05:30:16.537Z,19.81
2017-02-02T05:30:44.713Z,19.72
2017-02-02T05:31:56.021Z,19.78
2017-02-02T05:32:24.266Z,19.81
2017-02-02T05:32:52.616Z,19.87
2017-02-02T05:33:20.758Z,19.82
2017-02-02T05:33:49.167Z,19.84
2017-02-02T05:34:17.393Z,19.81
2017-02-02T05:34:45.571Z,19.82
2017-02-02T05:35:13.685Z,19.75
2017-02-02T05:35:41.922Z,19.87
2017-02-02T05:36:10.327Z,19.87
2017-02-02T05:36:38.684Z,19.84
2017-02-02T05:37:49.987Z,19.74
2017-02-02T05:38:18.143Z,19.82
2017-02-02T05:38:46.491Z,19.79
2017-02-02T05:39:14.627Z,19.81
2017-02-02T05:39:43.029Z,19.81
2017-02-02T05:40:11.260Z,19.84
2017-02-02T05:40:39.343Z,19.82
2017-02-02T05:41:07.555Z,19.82
2017-02-02T05:41:35.789Z,19.81
2017-02-02T05:42:04.104Z,19.78
2017-02-02T05:42:32.370Z,19.84
2017-02-02T05:43:43.668Z,19.78
2017-02-02T05:44:12.010Z,19.72
2017-02-02T05:44:40.207Z,19.82
2017-02-02T05:45:08.350Z,19.72
2017-02-02T05:45:36.749Z,19.79
2017-02-02T05:46:04.883Z,19.86
2017-02-02T05:46:33.059Z,19.74
2017-02-02T05:47:01.357Z,19.74
2017-02-02T05:47:29.592Z,19.84
2017-02-02T05:47:57.905Z,19.81
2017-02-02T05:48:26.168Z,19.75
2017-02-02T05:49:37.388Z,19.82
2017-02-02T05:50:05.459Z,19.84
2017-02-02T05:50:33.813Z,19.87
2017-02-02T05:51:02.141Z,19.81
2017-02-02T05:51:30.360Z,19.84
2017-02-02T05:51:58.402Z,19.84
2017-02-02T05:52:26.578Z,19.84
2017-02-02T05:52:54.884Z,19.81
2017-02-02T05:53:22.932Z,19.89
2017-02-02T05:53:51.241Z,19.89
2017-02-02T05:54:19.410Z,19.84
2017-02-02T05:55:30.711Z,19.84
2017-02-02T05:55:58.872Z,19.77
2017-02-02T05:56:27.577Z,19.86
2017-02-02T05:56:55.834Z,19.82
2017-02-02T05:57:24.119Z,19.87
2017-02-02T05:57:52.162Z,19.84
2017-02-02T05:58:20.427Z,19.82
2017-02-02T05:58:48.727Z,19.89
2017-02-02T05:59:16.966Z,19.79
2017-02-02T05:59:45.369Z,19.84
2017-02-02T06:00:13.546Z,19.77
2017-02-02T06:01:24.854Z,19.87
2017-02-02T06:01:53.016Z,19.75
2017-02-02T06:02:21.271Z,19.82
2017-02-02T06:02:49.325Z,19.87
2017-02-02T06:03:17.631Z,19.78
2017-02-02T06:03:45.874Z,19.9
2017-02-02T06:04:14.146Z,19.9
2017-02-02T06:04:42.444Z,19.84
2017-02-02T06:05:10.678Z,19.84
2017-02-02T06:05:38.928Z,19.9
2017-02-02T06:06:07.193Z,19.86
2017-02-02T06:07:18.493Z,19.79
2017-02-02T06:07:46.840Z,19.81
2017-02-02T06:08:15.005Z,19.81
2017-02-02T06:08:43.243Z,19.79
2017-02-02T06:09:11.552Z,19.86
2017-02-02T06:09:39.872Z,19.84
2017-02-02T06:10:08.043Z,19.77
2017-02-02T06:10:36.357Z,19.78
2017-02-02T06:11:04.483Z,19.79
2017-02-02T06:11:32.723Z,19.77
2017-02-02T06:12:01.070Z,19.77
2017-02-02T06:13:12.254Z,19.77
2017-02-02T06:13:40.486Z,19.72
2017-02-02T06:14:08.730Z,19.82
2017-02-02T06:14:37.046Z,19.77
2017-02-02T06:15:05.393Z,19.74
2017-02-02T06:15:33.597Z,19.81
2017-02-02T06:16:01.814Z,19.84
2017-02-02T06:16:30.043Z,19.74
2017-02-02T06:16:58.367Z,19.79
2017-02-02T06:17:26.694Z,19.75
2017-02-02T06:17:55.005Z,19.87
2017-02-02T06:19:06.057Z,19.9
2017-02-02T06:19:34.283Z,19.87
2017-02-02T06:20:02.590Z,19.86
2017-02-02T06:20:30.804Z,19.82
2017-02-02T06:20:59.079Z,19.81
2017-02-02T06:21:27.200Z,19.78
2017-02-02T06:21:55.530Z,19.82
2017-02-02T06:22:23.788Z,19.79
2017-02-02T06:22:52.041Z,19.81
2017-02-02T06:23:20.317Z,19.87
2017-02-02T06:23:48.549Z,19.77
2017-02-02T06:24:59.755Z,19.75
2017-02-02T06:25:28.001Z,19.72
2017-02-02T06:25:56.397Z,19.86
2017-02-02T06:26:24.639Z,19.79
2017-02-02T06:26:52.913Z,19.77
2017-02-02T06:27:21.114Z,19.79
2017-02-02T06:27:49.346Z,19.77
2017-02-02T06:28:17.511Z,19.74
2017-02-02T06:28:45.677Z,19.72
2017-02-02T06:29:14.052Z,19.79
2017-02-02T06:29:42.280Z,19.77
2017-02-02T06:30:53.679Z,19.75
2017-02-02T06:31:21.930Z,19.75
2017-02-02T06:31:50.233Z,19.81
2017-02-02T06:32:18.472Z,19.87
2017-02-02T06:32:46.744Z,19.81
2017-02-02T06:33:14.941Z,19.78
2017-02-02T06:33:42.984Z,19.81
2017-02-02T06:34:11.239Z,19.77
2017-02-02T06:34:39.486Z,19.82
2017-02-02T06:35:07.764Z,19.74
2017-02-02T06:35:36.091Z,19.75
2017-02-02T06:36:47.494Z,19.77
2017-02-02T06:37:15.834Z,19.77
2017-02-02T06:37:44.226Z,19.77
2017-02-02T06:38:12.375Z,19.78
2017-02-02T06:38:40.651Z,19.74
2017-02-02T06:39:08.972Z,19.71
2017-02-02T06:39:36.999Z,19.77
2017-02-02T06:40:05.165Z,19.75
2017-02-02T06:40:33.232Z,19.77
2017-02-02T06:41:01.513Z,19.77
2017-02-02T06:41:29.742Z,19.81
2017-02-02T06:42:40.956Z,19.81
2017-02-02T06:43:09.301Z,19.79
2017-02-02T06:43:37.693Z,19.79
2017-02-02T06:44:05.935Z,19.87
2017-02-02T06:44:34.218Z,19.77
2017-02-02T06:45:02.516Z,19.82
2017-02-02T06:45:30.654Z,19.84
2017-02-02T06:45:59.000Z,19.82
2017-02-02T06:46:27.340Z,19.82
2017-02-02T06:46:55.527Z,19.82
2017-02-02T06:47:23.756Z,19.84
2017-02-02T06:48:34.961Z,19.78
2017-02-02T06:49:03.205Z,19.84
2017-02-02T06:49:31.320Z,19.84
2017-02-02T06:49:59.657Z,19.87
2017-02-02T06:50:27.856Z,19.89
2017-02-02T06:50:56.156Z,19.84
2017-02-02T06:51:24.487Z,19.87
2017-02-02T06:51:52.742Z,19.92
2017-02-02T06:52:21.082Z,19.92
2017-02-02T06:52:49.365Z,19.89
2017-02-02T06:53:17.687Z,19.81
2017-02-02T06:54:28.986Z,19.9
2017-02-02T06:54:57.234Z,19.89
2017-02-02T06:55:25.535Z,19.87
2017-02-02T06:55:53.627Z,19.9
2017-02-02T06:56:21.988Z,19.87